Time;durP1;ratioP1;P1;durP2;ratioP2;P2;SDS_P1;SDS_P2;PMS_P1;PMS_P2;Temp;Humidity;BMP_temperature;BMP_pressure;BME280_temperature;BME280_humidity;BME280_pressure;Samples;Min_cycle;Max_cycle;Signal;HPM_P1;HPM_P2
2021/08/20 00:02:25;;;;;;;25.77;10.27;;;;;;;-145.18;100.00;60484.78;5077181;28;20021;-69
2021/08/20 00:04:51;;;;;;;32.47;10.90;;;;;;;-145.18;100.00;60484.78;5077698;28;20059;-69
2021/08/20 00:07:16;;;;;;;28.27;11.10;;;;;;;-145.18;100.00;60484.78;5077846;28;20036;-69
2021/08/20 00:09:42;;;;;;;28.70;10.60;;;;;;;-145.18;100.00;60484.78;5077999;28;20256;-69
2021/08/20 00:12:08;;;;;;;31.53;11.20;;;;;;;-145.18;100.00;60484.78;5077740;28;20031;-69
2021/08/20 00:14:34;;;;;;;31.43;11.87;;;;;;;-145.18;100.00;60484.78;5076320;28;20047;-69
2021/08/20 00:16:59;;;;;;;30.40;11.43;;;;;;;-145.18;100.00;60484.78;5077874;28;20020;-69
2021/08/20 00:19:25;;;;;;;28.80;11.70;;;;;;;-145.18;100.00;60484.78;5073331;28;20490;-69
2021/08/20 00:21:50;;;;;;;30.90;11.37;;;;;;;-145.18;100.00;60484.78;5078044;28;20036;-69
2021/08/20 00:24:16;;;;;;;34.90;11.37;;;;;;;-145.18;100.00;60484.78;5077028;28;20253;-69
2021/08/20 00:26:42;;;;;;;32.43;11.97;;;;;;;-145.18;100.00;60484.78;5077392;28;20028;-69
2021/08/20 00:29:08;;;;;;;32.37;11.67;;;;;;;-145.18;100.00;60484.78;5077868;28;20458;-69
2021/08/20 00:31:34;;;;;;;39.83;11.77;;;;;;;-145.18;100.00;60484.78;5074115;28;20416;-69
2021/08/20 00:33:59;;;;;;;34.40;11.90;;;;;;;-145.18;100.00;60484.78;5080778;28;20468;-69
2021/08/20 00:36:25;;;;;;;26.50;11.17;;;;;;;-145.18;100.00;60484.78;5076521;28;20566;-69
2021/08/20 00:38:50;;;;;;;38.67;12.63;;;;;;;-145.18;100.00;60484.78;5076951;28;20028;-69
2021/08/20 00:41:16;;;;;;;31.07;11.63;;;;;;;-145.18;100.00;60484.78;5076437;28;20033;-69
2021/08/20 00:43:43;;;;;;;36.57;12.03;;;;;;;-145.18;100.00;60484.78;5078828;28;20026;-69
2021/08/20 00:46:10;;;;;;;28.70;11.67;;;;;;;-145.18;100.00;60484.78;5078756;28;20028;-69
2021/08/20 00:48:35;;;;;;;32.20;11.30;;;;;;;-145.18;100.00;60484.78;5080744;28;20036;-69
2021/08/20 00:51:14;;;;;;;30.17;11.40;;;;;;;-145.18;100.00;60484.78;5078701;28;20027;-69
2021/08/20 00:53:40;;;;;;;26.27;10.50;;;;;;;-145.18;100.00;60484.78;5080934;28;20099;-69
2021/08/20 00:56:06;;;;;;;27.90;11.27;;;;;;;-145.18;100.00;60484.78;5073681;28;20028;-69
2021/08/20 00:58:33;;;;;;;29.70;12.30;;;;;;;-145.18;100.00;60484.78;5081541;28;20172;-69
2021/08/20 01:00:59;;;;;;;29.90;11.47;;;;;;;-145.18;100.00;60484.78;5081628;28;20028;-68
2021/08/20 01:03:26;;;;;;;33.67;12.50;;;;;;;-145.18;100.00;60484.78;5078292;28;20670;-68
2021/08/20 01:05:53;;;;;;;29.40;11.97;;;;;;;-145.18;100.00;60484.78;5080408;28;20515;-68
2021/08/20 01:08:21;;;;;;;34.47;13.17;;;;;;;-145.18;100.00;60484.78;5079535;28;20443;-68
2021/08/20 01:10:48;;;;;;;29.57;11.63;;;;;;;-145.18;100.00;60484.78;5068277;28;20051;-68
2021/08/20 01:13:13;;;;;;;31.30;12.93;;;;;;;-145.18;100.00;60484.78;5082138;28;20092;-68
2021/08/20 01:15:39;;;;;;;31.93;13.53;;;;;;;-145.18;100.00;60484.78;5077652;28;20024;-68
2021/08/20 01:18:04;;;;;;;32.77;12.53;;;;;;;-145.18;100.00;60484.78;5080701;28;20023;-68
2021/08/20 01:20:30;;;;;;;41.03;12.63;;;;;;;-145.18;100.00;60484.78;5078015;28;20043;-68
2021/08/20 01:22:55;;;;;;;35.03;14.07;;;;;;;-145.18;100.00;60484.78;5081667;28;20264;-68
2021/08/20 01:25:21;;;;;;;35.77;13.50;;;;;;;-145.18;100.00;60484.78;5079470;28;20086;-68
2021/08/20 01:27:46;;;;;;;32.57;12.93;;;;;;;-145.18;100.00;60484.78;5080448;28;20060;-68
2021/08/20 01:30:12;;;;;;;36.20;13.67;;;;;;;-145.18;100.00;60484.78;5080950;28;20128;-68
2021/08/20 01:32:38;;;;;;;38.03;14.60;;;;;;;-145.18;100.00;60484.78;5081692;28;20028;-68
2021/08/20 01:35:05;;;;;;;41.23;14.37;;;;;;;-145.18;100.00;60484.78;5079878;28;20039;-68
2021/08/20 01:37:30;;;;;;;37.50;14.33;;;;;;;-145.18;100.00;60484.78;5081465;28;20038;-68
2021/08/20 01:39:56;;;;;;;39.23;14.33;;;;;;;-145.18;100.00;60484.78;5080983;28;20028;-68
2021/08/20 01:42:21;;;;;;;44.13;15.03;;;;;;;-145.18;100.00;60484.78;5074448;28;20050;-73
2021/08/20 01:44:47;;;;;;;38.97;14.70;;;;;;;-145.18;100.00;60484.78;5078578;28;20461;-72
2021/08/20 01:47:12;;;;;;;38.40;12.80;;;;;;;-145.18;100.00;60484.78;5080357;28;20590;-68
2021/08/20 01:49:39;;;;;;;39.23;14.73;;;;;;;-145.18;100.00;60484.78;5076878;28;20055;-68
2021/08/20 01:52:06;;;;;;;39.40;14.00;;;;;;;-145.18;100.00;60484.78;5079353;28;20093;-68
2021/08/20 01:54:32;;;;;;;43.37;16.13;;;;;;;-145.18;100.00;60484.78;5078481;28;20016;-68
2021/08/20 01:56:57;;;;;;;39.13;15.67;;;;;;;-145.18;100.00;60484.78;5079978;28;20032;-70
2021/08/20 01:59:23;;;;;;;41.80;15.07;;;;;;;-145.18;100.00;60484.78;5080391;28;20043;-71
2021/08/20 02:01:48;;;;;;;43.90;16.23;;;;;;;-145.18;100.00;60484.78;5079384;28;20282;-71
2021/08/20 02:04:14;;;;;;;39.77;15.77;;;;;;;-145.18;100.00;60484.78;5080761;28;20557;-71
2021/08/20 02:06:39;;;;;;;32.07;13.10;;;;;;;-145.18;100.00;60484.78;5079609;28;20504;-71
2021/08/20 02:09:05;;;;;;;43.67;15.83;;;;;;;-145.18;100.00;60484.78;5078325;28;20044;-71
2021/08/20 02:11:31;;;;;;;40.00;15.03;;;;;;;-145.18;100.00;60484.78;5079846;28;20020;-71
2021/08/20 02:13:57;;;;;;;38.80;15.53;;;;;;;-145.18;100.00;60484.78;5073947;28;20039;-71
2021/08/20 02:16:22;;;;;;;40.87;15.13;;;;;;;-145.18;100.00;60484.78;5078470;28;20024;-70
2021/08/20 02:18:48;;;;;;;37.43;15.33;;;;;;;-145.18;100.00;60484.78;5078460;28;20032;-71
2021/08/20 02:21:13;;;;;;;41.27;15.33;;;;;;;-145.18;100.00;60484.78;5079563;28;20362;-71
2021/08/20 02:23:39;;;;;;;39.67;14.77;;;;;;;-145.18;100.00;60484.78;5078668;28;20039;-71
2021/08/20 02:26:08;;;;;;;38.97;14.40;;;;;;;-145.18;100.00;60484.78;5080415;28;20036;-71
2021/08/20 02:28:34;;;;;;;39.77;15.63;;;;;;;-145.18;100.00;60484.78;5080009;28;20036;-71
2021/08/20 02:31:00;;;;;;;39.80;16.20;;;;;;;-145.18;100.00;60484.78;5080437;28;20028;-71
2021/08/20 02:33:25;;;;;;;43.93;15.47;;;;;;;-145.18;100.00;60484.78;5079795;28;20708;-71
2021/08/20 02:35:51;;;;;;;35.57;15.03;;;;;;;-145.18;100.00;60484.78;5079297;28;20024;-71
2021/08/20 02:38:17;;;;;;;45.23;15.20;;;;;;;-145.18;100.00;60484.78;5079698;28;20030;-71
2021/08/20 02:40:42;;;;;;;43.30;15.67;;;;;;;-145.18;100.00;60484.78;5078173;28;20055;-71
2021/08/20 02:43:08;;;;;;;49.60;16.20;;;;;;;-145.18;100.00;60484.78;5076557;28;20210;-71
2021/08/20 02:45:33;;;;;;;48.93;16.63;;;;;;;-145.18;100.00;60484.78;5077666;28;20035;-71
2021/08/20 02:47:59;;;;;;;44.10;15.47;;;;;;;-145.18;100.00;60484.78;5079115;28;20040;-71
2021/08/20 02:50:24;;;;;;;43.03;16.27;;;;;;;-145.18;100.00;60484.78;5070068;28;20427;-71
2021/08/20 02:52:49;;;;;;;45.67;15.87;;;;;;;-145.18;100.00;60484.78;5076738;28;20108;-71
2021/08/20 02:55:15;;;;;;;46.73;16.00;;;;;;;-145.18;100.00;60484.78;5078695;28;20032;-71
2021/08/20 02:57:41;;;;;;;43.53;16.73;;;;;;;-145.18;100.00;60484.78;5079808;28;20024;-71
2021/08/20 03:00:07;;;;;;;50.13;16.43;;;;;;;-145.18;100.00;60484.78;5078099;28;20111;-68
2021/08/20 03:02:32;;;;;;;47.93;16.80;;;;;;;-145.18;100.00;60484.78;5079975;28;20043;-68
2021/08/20 03:04:58;;;;;;;41.93;15.20;;;;;;;-145.18;100.00;60484.78;5075519;28;20024;-68
2021/08/20 03:07:23;;;;;;;51.20;17.07;;;;;;;-145.18;100.00;60484.78;5079291;28;20517;-68
2021/08/20 03:09:49;;;;;;;46.43;16.07;;;;;;;-145.18;100.00;60484.78;5077366;28;20381;-68
2021/08/20 03:12:14;;;;;;;42.60;14.73;;;;;;;-145.18;100.00;60484.78;5078180;28;20056;-68
2021/08/20 03:14:40;;;;;;;50.50;15.63;;;;;;;-145.18;100.00;60484.78;5077504;28;20493;-67
2021/08/20 03:17:05;;;;;;;46.03;15.77;;;;;;;-145.18;100.00;60484.78;5078863;28;20491;-68
2021/08/20 03:19:31;;;;;;;45.30;16.60;;;;;;;-145.18;100.00;60484.78;5077943;28;20028;-67
2021/08/20 03:21:56;;;;;;;44.13;15.37;;;;;;;-145.18;100.00;60484.78;5079588;28;20035;-67
2021/08/20 03:24:22;;;;;;;46.70;16.10;;;;;;;-145.18;100.00;60484.78;5077859;28;20024;-68
2021/08/20 03:26:48;;;;;;;41.00;14.97;;;;;;;-145.18;100.00;60484.78;5078879;28;20020;-68
2021/08/20 03:29:13;;;;;;;46.33;15.37;;;;;;;-145.18;100.00;60484.78;5078846;28;20373;-67
2021/08/20 03:31:39;;;;;;;45.30;15.67;;;;;;;-145.18;100.00;60484.78;5077186;28;20567;-68
2021/08/20 03:34:04;;;;;;;49.03;16.10;;;;;;;-145.18;100.00;60484.78;5075491;28;20043;-67
2021/08/20 03:36:30;;;;;;;45.77;15.90;;;;;;;-145.18;100.00;60484.78;5078915;28;20546;-67
2021/08/20 03:38:55;;;;;;;44.73;16.43;;;;;;;-145.18;100.00;60484.78;5077161;28;20043;-68
2021/08/20 03:41:22;;;;;;;45.83;15.30;;;;;;;-145.18;100.00;60484.78;5071091;28;20035;-68
2021/08/20 03:43:48;;;;;;;39.83;15.00;;;;;;;-145.18;100.00;60484.78;5073454;28;20032;-67
2021/08/20 03:46:14;;;;;;;41.00;14.70;;;;;;;-145.18;100.00;60484.78;5077747;28;20350;-68
2021/08/20 03:48:42;;;;;;;41.83;16.37;;;;;;;-145.18;100.00;60484.78;5076515;28;20195;-68
2021/08/20 03:51:07;;;;;;;50.00;17.00;;;;;;;-145.18;100.00;60484.78;5066085;28;20082;-69
2021/08/20 03:53:33;;;;;;;46.90;16.50;;;;;;;-145.18;100.00;60484.78;5078096;28;20376;-68
2021/08/20 03:55:58;;;;;;;43.40;15.57;;;;;;;-145.18;100.00;60484.78;5078453;28;20343;-68
2021/08/20 03:58:24;;;;;;;44.07;15.43;;;;;;;-145.18;100.00;60484.78;5077343;28;20341;-68
2021/08/20 04:00:52;;;;;;;44.17;16.43;;;;;;;-145.18;100.00;60484.78;5069634;28;20388;-68
2021/08/20 04:03:19;;;;;;;48.03;16.20;;;;;;;-145.18;100.00;60484.78;5077178;28;20039;-67
2021/08/20 04:05:45;;;;;;;50.17;16.47;;;;;;;-145.18;100.00;60484.78;5078138;28;20043;-68
2021/08/20 04:08:11;;;;;;;46.67;15.87;;;;;;;-145.18;100.00;60484.78;5078200;28;20285;-68
2021/08/20 04:10:36;;;;;;;47.77;17.37;;;;;;;-145.18;100.00;60484.78;5063552;28;20029;-68
2021/08/20 04:13:02;;;;;;;49.47;15.40;;;;;;;-145.18;100.00;60484.78;5077122;28;20476;-68
2021/08/20 04:15:27;;;;;;;48.63;16.37;;;;;;;-145.18;100.00;60484.78;5076715;28;20448;-68
2021/08/20 04:17:53;;;;;;;56.70;17.60;;;;;;;-145.18;100.00;60484.78;5077834;28;20028;-67
2021/08/20 04:20:18;;;;;;;47.77;16.17;;;;;;;-145.18;100.00;60484.78;5082205;28;20248;-68
2021/08/20 04:22:44;;;;;;;55.83;16.97;;;;;;;-145.18;100.00;60484.78;5081838;28;20184;-67
2021/08/20 04:25:10;;;;;;;51.57;16.57;;;;;;;-145.18;100.00;60484.78;5081919;28;20086;-68
2021/08/20 04:27:35;;;;;;;51.00;17.03;;;;;;;-145.18;100.00;60484.78;5082430;28;20285;-68
2021/08/20 04:30:01;;;;;;;53.40;17.77;;;;;;;-145.18;100.00;60484.78;5080974;28;20051;-68
2021/08/20 04:32:26;;;;;;;52.53;16.60;;;;;;;-145.18;100.00;60484.78;5082778;28;20469;-68
2021/08/20 04:34:52;;;;;;;48.70;16.30;;;;;;;-145.18;100.00;60484.78;5078820;28;20024;-68
2021/08/20 04:37:19;;;;;;;47.80;16.07;;;;;;;-145.18;100.00;60484.78;5080627;28;20039;-68
2021/08/20 04:39:45;;;;;;;60.30;17.40;;;;;;;-145.18;100.00;60484.78;5073707;28;20029;-68
2021/08/20 04:42:11;;;;;;;51.33;16.17;;;;;;;-145.18;100.00;60484.78;5080215;28;20030;-68
2021/08/20 04:44:36;;;;;;;43.97;15.47;;;;;;;-145.18;100.00;60484.78;5080699;28;20032;-68
2021/08/20 04:47:02;;;;;;;48.43;16.93;;;;;;;-145.18;100.00;60484.78;5073807;28;20056;-68
2021/08/20 04:49:27;;;;;;;49.77;16.13;;;;;;;-145.18;100.00;60484.78;5081016;28;20423;-69
2021/08/20 04:51:53;;;;;;;48.87;16.93;;;;;;;-145.18;100.00;60484.78;5081345;28;20565;-68
2021/08/20 04:54:18;;;;;;;50.33;15.77;;;;;;;-145.18;100.00;60484.78;5080998;28;20035;-68
2021/08/20 04:56:44;;;;;;;50.00;16.97;;;;;;;-145.18;100.00;60484.78;5080948;28;20055;-68
2021/08/20 04:59:10;;;;;;;38.47;13.87;;;;;;;-145.18;100.00;60484.78;5079006;28;20109;-68
2021/08/20 05:01:36;;;;;;;48.33;16.90;;;;;;;-145.18;100.00;60484.78;5080213;28;20273;-68
2021/08/20 05:04:02;;;;;;;50.20;15.17;;;;;;;-145.18;100.00;60484.78;5081447;28;20034;-68
2021/08/20 05:06:28;;;;;;;43.07;14.77;;;;;;;-145.18;100.00;60484.78;5081097;28;20434;-68
2021/08/20 05:08:53;;;;;;;46.20;15.83;;;;;;;-145.18;100.00;60484.78;5080665;28;20439;-68
2021/08/20 05:11:19;;;;;;;42.00;14.60;;;;;;;-145.18;100.00;60484.78;5080456;28;20461;-69
2021/08/20 05:13:44;;;;;;;55.03;16.20;;;;;;;-145.18;100.00;60484.78;5081319;28;20396;-69
2021/08/20 05:16:10;;;;;;;38.90;15.70;;;;;;;-145.18;100.00;60484.78;5078368;28;20027;-69
2021/08/20 05:18:35;;;;;;;42.13;14.90;;;;;;;-145.18;100.00;60484.78;5081548;28;20107;-69
2021/08/20 05:21:01;;;;;;;36.07;14.77;;;;;;;-145.18;100.00;60484.78;5078153;28;20035;-69
2021/08/20 05:23:26;;;;;;;37.63;14.70;;;;;;;-145.18;100.00;60484.78;5081189;28;20584;-69
2021/08/20 05:25:52;;;;;;;43.03;15.43;;;;;;;-145.18;100.00;60484.78;5078999;28;20023;-68
2021/08/20 05:28:17;;;;;;;40.77;15.30;;;;;;;-145.18;100.00;60484.78;5079139;28;20051;-68
2021/08/20 05:30:43;;;;;;;39.53;15.70;;;;;;;-145.18;100.00;60484.78;5079337;28;20213;-69
2021/08/20 05:33:08;;;;;;;40.73;16.23;;;;;;;-145.18;100.00;60484.78;5081878;28;20016;-70
2021/08/20 05:35:34;;;;;;;38.93;14.80;;;;;;;-145.18;100.00;60484.78;5078248;28;20476;-70
2021/08/20 05:38:01;;;;;;;39.40;15.07;;;;;;;-145.18;100.00;60484.78;5081535;28;20299;-70
2021/08/20 05:40:27;;;;;;;38.70;15.43;;;;;;;-145.18;100.00;60484.78;5069499;28;20174;-70
2021/08/20 05:42:53;;;;;;;35.33;14.33;;;;;;;-145.18;100.00;60484.78;5081476;28;20040;-70
2021/08/20 05:45:18;;;;;;;34.33;15.10;;;;;;;-145.18;100.00;60484.78;5078010;28;20035;-71
2021/08/20 05:47:44;;;;;;;36.37;14.77;;;;;;;-145.18;100.00;60484.78;5081975;28;20035;-70
2021/08/20 05:50:09;;;;;;;39.77;15.37;;;;;;;-145.18;100.00;60484.78;5071047;28;20480;-70
2021/08/20 05:52:37;;;;;;;32.90;14.33;;;;;;;-145.18;100.00;60484.78;5080044;28;20168;-70
2021/08/20 05:55:05;;;;;;;34.67;14.43;;;;;;;-145.18;100.00;60484.78;5079252;28;20024;-73
2021/08/20 05:57:30;;;;;;;34.97;13.70;;;;;;;-145.18;100.00;60484.78;5076360;28;20054;-73
2021/08/20 05:59:56;;;;;;;36.00;13.80;;;;;;;-145.18;100.00;60484.78;5073949;28;20032;-73
2021/08/20 06:02:21;;;;;;;33.40;13.50;;;;;;;-145.18;100.00;60484.78;5079052;28;20056;-72
2021/08/20 06:04:47;;;;;;;30.40;13.23;;;;;;;-145.18;100.00;60484.78;5075916;28;20308;-72
2021/08/20 06:07:12;;;;;;;29.20;13.07;;;;;;;-145.18;100.00;60484.78;5078494;28;20040;-71
2021/08/20 06:09:38;;;;;;;30.87;13.53;;;;;;;-145.18;100.00;60484.78;5075501;28;21518;-72
2021/08/20 06:12:04;;;;;;;27.50;12.30;;;;;;;-145.18;100.00;60484.78;5081544;28;20534;-71
2021/08/20 06:14:29;;;;;;;27.97;10.77;;;;;;;-145.18;100.00;60484.78;5075604;28;20043;-72
2021/08/20 06:16:55;;;;;;;21.63;10.93;;;;;;;-145.18;100.00;60484.78;5080990;28;20031;-71
2021/08/20 06:19:25;;;;;;;24.97;11.67;;;;;;;-145.18;100.00;60484.78;5076786;28;20488;-71
2021/08/20 06:21:51;;;;;;;26.47;11.17;;;;;;;-145.18;100.00;60484.78;5081105;28;20028;-71
2021/08/20 06:24:17;;;;;;;21.53;10.63;;;;;;;-145.18;100.00;60484.78;5080662;28;20184;-71
2021/08/20 06:26:45;;;;;;;21.13;10.83;;;;;;;-145.18;100.00;60484.78;5081057;28;20055;-71
2021/08/20 06:29:11;;;;;;;17.48;8.85;;;;;;;-145.18;100.00;60484.78;5077676;28;20059;-71
2021/08/20 06:31:36;;;;;;;18.77;10.18;;;;;;;-145.18;100.00;60484.78;5081286;28;20468;-71
2021/08/20 06:34:02;;;;;;;19.65;9.70;;;;;;;-145.18;100.00;60484.78;5078542;28;20496;-71
2021/08/20 06:36:27;;;;;;;20.45;10.20;;;;;;;-145.18;100.00;60484.78;5081058;28;20360;-71
2021/08/20 06:38:53;;;;;;;23.25;10.88;;;;;;;-145.18;100.00;60484.78;5078271;28;20252;-68
2021/08/20 06:41:18;;;;;;;19.10;9.73;;;;;;;-145.18;100.00;60484.78;5070707;28;20139;-69
2021/08/20 06:43:44;;;;;;;17.38;9.23;;;;;;;-145.18;100.00;60484.78;5079911;28;20036;-69
2021/08/20 06:46:09;;;;;;;21.48;10.05;;;;;;;-145.18;100.00;60484.78;5070996;28;20028;-69
2021/08/20 06:48:35;;;;;;;19.33;9.73;;;;;;;-145.18;100.00;60484.78;5080249;28;20042;-69
2021/08/20 06:51:00;;;;;;;20.48;10.00;;;;;;;-145.18;100.00;60484.78;5071124;28;20030;-69
2021/08/20 06:53:27;;;;;;;25.10;10.43;;;;;;;-145.18;100.00;60484.78;5080522;28;20113;-69
2021/08/20 06:55:53;;;;;;;19.08;9.75;;;;;;;-145.18;100.00;60484.78;5071049;28;20067;-69
2021/08/20 06:58:18;;;;;;;19.85;9.65;;;;;;;-145.18;100.00;60484.78;5080230;28;20261;-69
2021/08/20 07:00:44;;;;;;;19.77;10.20;;;;;;;-145.18;100.00;60484.78;5071721;28;20626;-69
2021/08/20 07:03:09;;;;;;;20.45;10.20;;;;;;;-145.18;100.00;60484.78;5080143;28;20043;-69
2021/08/20 07:05:35;;;;;;;21.77;10.60;;;;;;;-145.18;100.00;60484.78;5073388;28;20028;-69
2021/08/20 07:08:01;;;;;;;20.25;9.73;;;;;;;-145.18;100.00;60484.78;5079503;28;20047;-69
2021/08/20 07:10:26;;;;;;;18.90;9.85;;;;;;;-145.18;100.00;60484.78;5074075;28;20066;-69
2021/08/20 07:12:52;;;;;;;17.25;9.77;;;;;;;-145.18;100.00;60484.78;5080173;28;20055;-69
2021/08/20 07:15:17;;;;;;;21.25;10.48;;;;;;;-145.18;100.00;60484.78;5075060;28;20064;-69
2021/08/20 07:17:43;;;;;;;20.17;9.50;;;;;;;-145.18;100.00;60484.78;5080136;28;20616;-71
2021/08/20 07:20:11;;;;;;;21.25;9.25;;;;;;;-145.18;100.00;60484.78;5074900;28;20036;-69
2021/08/20 07:22:37;;;;;;;16.30;9.13;;;;;;;-145.18;100.00;60484.78;5080110;28;20031;-69
2021/08/20 07:25:02;;;;;;;17.90;9.30;;;;;;;-145.18;100.00;60484.78;5079795;28;20348;-69
2021/08/20 07:27:28;;;;;;;19.88;9.65;;;;;;;-145.18;100.00;60484.78;5076624;28;20051;-69
2021/08/20 07:29:54;;;;;;;18.45;10.02;;;;;;;-145.18;100.00;60484.78;5076571;28;20031;-69
2021/08/20 07:32:19;;;;;;;18.90;9.70;;;;;;;-145.18;100.00;60484.78;5079880;28;20256;-69
2021/08/20 07:34:45;;;;;;;19.65;9.63;;;;;;;-145.18;100.00;60484.78;5077771;28;20263;-69
2021/08/20 07:37:10;;;;;;;18.58;10.00;;;;;;;-145.18;100.00;60484.78;5079876;28;20028;-70
2021/08/20 07:39:36;;;;;;;19.13;9.05;;;;;;;-145.18;100.00;60484.78;5071308;28;20368;-69
2021/08/20 07:42:03;;;;;;;18.75;9.35;;;;;;;-145.18;100.00;60484.78;5076562;28;20028;-69
2021/08/20 07:44:29;;;;;;;17.88;9.43;;;;;;;-145.18;100.00;60484.78;5072336;28;20039;-69
2021/08/20 07:46:55;;;;;;;17.15;8.77;;;;;;;-145.18;100.00;60484.78;5076516;28;20028;-69
2021/08/20 07:49:20;;;;;;;15.07;8.18;;;;;;;-145.18;100.00;60484.78;5079236;28;20032;-69
2021/08/20 07:51:46;;;;;;;16.75;9.05;;;;;;;-145.18;100.00;60484.78;5077460;28;20020;-69
2021/08/20 07:54:11;;;;;;;17.42;9.00;;;;;;;-145.18;100.00;60484.78;5073957;28;20033;-69
2021/08/20 07:56:37;;;;;;;17.55;9.10;;;;;;;-145.18;100.00;60484.78;5068081;28;20296;-69
2021/08/20 07:59:02;;;;;;;15.88;8.40;;;;;;;-145.18;100.00;60484.78;5070942;28;20028;-69
2021/08/20 08:01:28;;;;;;;18.88;8.98;;;;;;;-145.18;100.00;60484.78;5067222;28;20476;-69
2021/08/20 08:03:57;;;;;;;17.48;9.43;;;;;;;-145.18;100.00;60484.78;5059631;28;20077;-69
2021/08/20 08:06:27;;;;;;;17.05;8.75;;;;;;;-145.18;100.00;60484.78;5070499;28;20123;-69
2021/08/20 08:08:53;;;;;;;19.65;9.50;;;;;;;-145.18;100.00;60484.78;5072064;28;20165;-70
2021/08/20 08:11:19;;;;;;;21.25;9.73;;;;;;;-145.18;100.00;60484.78;5073580;28;20028;-69
2021/08/20 08:13:45;;;;;;;17.88;8.98;;;;;;;-145.18;100.00;60484.78;5077794;28;20032;-70
2021/08/20 08:16:25;;;;;;;19.70;9.23;;;;;;;-145.18;100.00;60484.78;5067711;28;20065;-69
2021/08/20 08:18:51;;;;;;;19.52;9.23;;;;;;;-145.18;100.00;60484.78;5068877;28;20036;-69
2021/08/20 08:21:16;;;;;;;17.52;9.45;;;;;;;-145.18;100.00;60484.78;5066021;28;20035;-69
2021/08/20 08:23:42;;;;;;;19.55;9.40;;;;;;;-145.18;100.00;60484.78;5077055;28;20036;-69
2021/08/20 08:26:07;;;;;;;18.20;10.23;;;;;;;-145.18;100.00;60484.78;5077338;28;20028;-69
2021/08/20 08:28:33;;;;;;;19.50;9.70;;;;;;;-145.18;100.00;60484.78;5079298;28;20288;-69
2021/08/20 08:31:02;;;;;;;17.15;8.57;;;;;;;-145.18;100.00;60484.78;5078217;28;20029;-69
2021/08/20 08:33:28;;;;;;;18.05;9.90;;;;;;;-145.18;100.00;60484.78;5078837;28;20653;-70
2021/08/20 08:35:53;;;;;;;18.70;9.95;;;;;;;-145.18;100.00;60484.78;5073266;28;20375;-69
2021/08/20 08:38:19;;;;;;;21.08;9.38;;;;;;;-145.18;100.00;60484.78;5079148;28;20135;-69
2021/08/20 08:40:46;;;;;;;15.30;9.10;;;;;;;-145.18;100.00;60484.78;5074368;28;20028;-70
2021/08/20 08:43:13;;;;;;;16.58;7.80;;;;;;;-145.18;100.00;60484.78;5079129;28;20462;-70
2021/08/20 08:45:38;;;;;;;17.58;8.25;;;;;;;-145.18;100.00;60484.78;5075710;28;20085;-69
2021/08/20 08:48:07;;;;;;;15.82;8.38;;;;;;;-145.18;100.00;60484.78;5077703;28;20024;-70
2021/08/20 08:50:33;;;;;;;16.65;8.82;;;;;;;-145.18;100.00;60484.78;5064866;28;20031;-70
2021/08/20 08:53:00;;;;;;;15.40;8.75;;;;;;;-145.18;100.00;60484.78;5069816;28;20036;-69
2021/08/20 08:55:26;;;;;;;18.08;8.68;;;;;;;-145.18;100.00;60484.78;5074442;28;20186;-69
2021/08/20 08:57:51;;;;;;;17.33;8.85;;;;;;;-145.18;100.00;60484.78;5075302;28;20127;-69
2021/08/20 09:00:38;;;;;;;18.42;8.50;;;;;;;-145.18;100.00;60484.78;5068430;28;20174;-69
2021/08/20 09:03:05;;;;;;;14.02;7.85;;;;;;;-145.18;100.00;60484.78;5071591;28;20061;-70
2021/08/20 09:05:44;;;;;;;15.90;7.80;;;;;;;-145.18;100.00;60484.78;5072301;28;20163;-70
2021/08/20 09:08:14;;;;;;;15.13;7.80;;;;;;;-145.18;100.00;60484.78;5081922;28;20040;-69
2021/08/20 09:11:01;;;;;;;14.35;6.97;;;;;;;-145.18;100.00;60484.78;5074381;28;20028;-69
2021/08/20 09:13:28;;;;;;;13.63;7.30;;;;;;;-145.18;100.00;60484.78;5081703;28;20030;-69
2021/08/20 09:16:11;;;;;;;13.40;6.40;;;;;;;-145.18;100.00;60484.78;5075447;28;20269;-71
2021/08/20 09:18:37;;;;;;;15.93;7.82;;;;;;;-145.18;100.00;60484.78;5080523;28;20035;-71
2021/08/20 09:21:04;;;;;;;12.90;6.85;;;;;;;-145.18;100.00;60484.78;5073926;28;20104;-71
2021/08/20 09:23:30;;;;;;;14.68;6.93;;;;;;;-145.18;100.00;60484.78;5073850;28;20485;-72
2021/08/20 09:25:56;;;;;;;17.70;8.68;;;;;;;-145.18;100.00;60484.78;5076708;28;20027;-71
2021/08/20 09:28:30;;;;;;;14.95;8.60;;;;;;;-145.18;100.00;60484.78;5082007;28;20024;-71
2021/08/20 09:31:02;;;;;;;16.77;8.18;;;;;;;-145.18;100.00;60484.78;5078099;28;20040;-71
2021/08/20 09:33:36;;;;;;;12.77;7.07;;;;;;;-145.18;100.00;60484.78;5076001;28;20662;-71
2021/08/20 09:36:11;;;;;;;12.48;7.13;;;;;;;-145.18;100.00;60484.78;5078873;28;20433;-71
2021/08/20 09:38:39;;;;;;;14.40;7.05;;;;;;;-145.18;100.00;60484.78;5081744;28;20052;-71
2021/08/20 09:41:09;;;;;;;14.55;6.72;;;;;;;-145.18;100.00;60484.78;5075048;28;20165;-71
2021/08/20 09:43:36;;;;;;;10.02;5.25;;;;;;;-145.18;100.00;60484.78;5081168;28;20249;-71
2021/08/20 09:46:20;;;;;;;10.45;5.30;;;;;;;-145.18;100.00;60484.78;5070817;28;20058;-71
2021/08/20 09:48:59;;;;;;;13.43;6.63;;;;;;;-145.18;100.00;60484.78;5080691;28;20030;-71
2021/08/20 09:51:40;;;;;;;12.23;5.70;;;;;;;-145.18;100.00;60484.78;5074751;28;20016;-71
2021/08/20 09:54:17;;;;;;;10.88;4.90;;;;;;;-145.18;100.00;60484.78;5065835;28;20434;-71
2021/08/20 09:56:44;;;;;;;10.30;4.95;;;;;;;-145.18;100.00;60484.78;5078164;28;20063;-72
2021/08/20 09:59:11;;;;;;;10.60;5.15;;;;;;;-145.18;100.00;60484.78;5077062;28;20050;-71
2021/08/20 10:01:39;;;;;;;12.00;5.78;;;;;;;-145.18;100.00;60484.78;5077918;28;20024;-72
2021/08/20 10:04:07;;;;;;;12.10;5.80;;;;;;;-145.18;100.00;60484.78;5071085;28;20032;-71
2021/08/20 10:06:38;;;;;;;10.00;5.72;;;;;;;-145.18;100.00;60484.78;5078451;28;20027;-72
2021/08/20 10:09:09;;;;;;;11.27;6.15;;;;;;;-145.18;100.00;60484.78;5073084;28;20052;-72
2021/08/20 10:11:39;;;;;;;12.30;6.10;;;;;;;-145.18;100.00;60484.78;5078969;28;20224;-72
2021/08/20 10:14:05;;;;;;;11.63;5.90;;;;;;;-145.18;100.00;60484.78;5072895;28;20355;-71
2021/08/20 10:16:33;;;;;;;11.20;6.20;;;;;;;-145.18;100.00;60484.78;5078441;28;20271;-70
2021/08/20 10:19:00;;;;;;;11.93;6.68;;;;;;;-145.18;100.00;60484.78;5070012;28;20042;-70
2021/08/20 10:21:26;;;;;;;12.27;6.20;;;;;;;-145.18;100.00;60484.78;5075364;28;20431;-70
2021/08/20 10:23:52;;;;;;;9.93;5.97;;;;;;;-145.18;100.00;60484.78;5074087;28;20036;-69
2021/08/20 10:26:19;;;;;;;12.85;5.97;;;;;;;-145.18;100.00;60484.78;5071293;28;20600;-70
2021/08/20 10:28:53;;;;;;;13.00;6.15;;;;;;;-145.18;100.00;60484.78;5073934;28;20186;-70
2021/08/20 10:31:20;;;;;;;10.90;5.80;;;;;;;-145.18;100.00;60484.78;5073123;28;20036;-70
2021/08/20 10:33:46;;;;;;;12.70;6.43;;;;;;;-145.18;100.00;60484.78;5072468;28;20078;-70
2021/08/20 10:36:11;;;;;;;11.40;6.53;;;;;;;-145.18;100.00;60484.78;5072974;28;20552;-70
2021/08/20 10:38:49;;;;;;;13.48;6.60;;;;;;;-145.18;100.00;60484.78;5074798;28;20476;-70
2021/08/20 10:41:22;;;;;;;14.38;6.43;;;;;;;-145.18;100.00;60484.78;5071757;28;20854;-70
2021/08/20 10:44:19;;;;;;;15.13;7.82;;;;;;;-145.18;100.00;60484.78;5073278;28;20031;-70
2021/08/20 10:47:05;;;;;;;14.50;8.10;;;;;;;-145.18;100.00;60484.78;5058039;28;20044;-70
2021/08/20 10:49:43;;;;;;;13.52;7.15;;;;;;;-145.18;100.00;60484.78;5068719;28;20032;-70
2021/08/20 10:52:21;;;;;;;15.23;8.18;;;;;;;-145.18;100.00;60484.78;5072004;28;20256;-70
2021/08/20 10:55:08;;;;;;;17.10;7.78;;;;;;;-145.18;100.00;60484.78;5072288;28;20507;-70
2021/08/20 10:57:55;;;;;;;12.55;6.55;;;;;;;-145.18;100.00;60484.78;5053129;28;20044;-70